San Ardo, CA (93450)

12:19 AM PDT on September 27, 2016 (GMT -0700)
South of San Ardo | | Change Station

Elev 600 ft 35.97 °N, 120.90 °W | Updated 14 seconds ago

Clear
Clear
70.2 °F
Feels Like 76 °F
N
0.0
Wind Variable Wind from SSW
Gusts 0.0 mph

Today
High -- | Low -- °F
--% Chance of Precip.
Yesterday
High -- | Low -- °F
Precip. -- in
Pressure 29.95 in
Visibility 10.0 miles
Clouds Clear
Heat Index 76 °F
Dew Point 38 °F
Humidity 31%
Rainfall 0.00 in
Snow Depth Not available.
6:55 AM 6:52 PM
Waning Crescent, 13% visible
METAR KPRB 270653Z AUTO 11003KT 10SM CLR 17/M01 A2997 RMK AO2 SLP141 T01721011 TSNO
Pressure 29.95 in
Visibility 10.0 miles
Clouds Clear
Heat Index 76 °F
Dew Point 38 °F
Humidity 31%
Rainfall 0.00 in
Snow Depth Not available.
6:55 AM 6:52 PM
Waning Crescent, 13% visible
METAR KPRB 270653Z AUTO 11003KT 10SM CLR 17/M01 A2997 RMK AO2 SLP141 T01721011 TSNO

10-Day Weather Forecast

Almanac

Astronomy

Sep. 27, 2016 Rise Set
Actual Time
Civil Twilight
Nautical Twilight
Astronomical Twilight
Moon
Length of Visible Light
Length of Day
Tomorrow will be .
, % of the Moon is Illuminated

Today's Extremes

State Highs State Lows

Community

WunderPhotos

Upload Photos

1,942,040 photos uploaded!

WunderBlog® & News

Nearby

Air Quality

  Air Quality AQ Index Pollutant
Not available.

Snow Depth

Station Depth Elevation

Earthquake Activity

City Distance Mag. Time & Date
Minimum magnitude displayed is 2.5.

Coastal Water Temperatures

Place Temperature

Stations

Nearby Weather Stations

Station Location Temp. Windchill Dew Point Humidity Wind Precip. Elev Updated Type
                   

Watches & Warnings

There are currently no watches in effect.